Overview Statistics Trail Chart Weather Telemetry Raw packets
 

This is the latest recevied weather packets stored in our database for station/object OK5TVR-5. If no packets are shown the sender has not sent any weather packets the latest 10 day(s).

<< 8 9 10 11 12 13 14 >>
Time Temp. Humidity Pressure Rain* Wind** Luminosity Snow
1788455247 17.78° C 81% 1013.7 hPa 0.25 mm - 7 W/m² -
1788454341 17.22° C 83% 1013.7 hPa 0.25 mm - 12 W/m² -
1788453440 17.78° C 78% 1013.7 hPa 0 mm - 12 W/m² -
1788452541 17.78° C 77% 1013.5 hPa 0 mm - 13 W/m² -
1788451641 18.33° C 72% 1013.4 hPa 0 mm - 15 W/m² -
1788450741 19.44° C 65% 1013.4 hPa 0 mm - 11 W/m² -
1788449842 19.44° C 62% 1013.3 hPa 0 mm - 17 W/m² -
1788448942 20.56° C 55% 1013 hPa 0 mm - 22 W/m² -
1788448041 21.11° C 53% 1012.8 hPa 0 mm - 16 W/m² -
1788447140 21.11° C 51% 1012.8 hPa 0 mm - 18 W/m² -
1788446241 21.67° C 51% 1012.6 hPa 0 mm - 21 W/m² -
1788445341 21.67° C 50% 1012.4 hPa 0 mm - 36 W/m² -
1788444441 22.22° C 48% 1012.3 hPa 0 mm - 45 W/m² -
1788443540 22.78° C 46% 1012.1 hPa 0 mm - 97 W/m² -
1788442641 22.22° C 48% 1012.2 hPa 0 mm - 89 W/m² -
1788441745 22.22° C 47% 1012.4 hPa 0 mm - 62 W/m² -
1788440840 23.33° C 45% 1012.1 hPa 0 mm - 110 W/m² -
1788439941 22.78° C 43% 1011.7 hPa 0 mm - 113 W/m² -
1788439041 23.89° C 42% 1011.6 hPa 0 mm - 206 W/m² -
1788438141 25.56° C 39% 1011.2 hPa 0 mm - 288 W/m² -
1788437241 25° C 41% 1011.5 hPa 0 mm - 298 W/m² -
1788436341 23.89° C 40% 1011.8 hPa 0 mm - 328 W/m² -
1788435441 24.44° C 41% 1012.3 hPa 0 mm - 196 W/m² -
1788434541 23.33° C 42% 1012.4 hPa 0 mm - 243 W/m² -
1788433641 22.22° C 42% 1012.6 hPa 0 mm - 319 W/m² -

* Rain latest hour (hover to see other rain measurements)
** Current wind speed in m/s (hover to see current wind gust speed)